Time;durP1;ratioP1;P1;durP2;ratioP2;P2;SDS_P1;SDS_P2;PMS_P1;PMS_P2;Temp;Humidity;BMP_temperature;BMP_pressure;BME280_temperature;BME280_humidity;BME280_pressure;Samples;Min_cycle;Max_cycle;Signal;HPM_P1;HPM_P2
2021/04/24 00:01:22;;;;;;;27.50;13.07;;;3.50;95.30;;;;;;5095601;28;20469;-62
2021/04/24 00:03:48;;;;;;;21.23;12.20;;;3.50;94.90;;;;;;5099913;27;20485;-63
2021/04/24 00:06:13;;;;;;;22.35;12.98;;;3.50;95.30;;;;;;5105475;27;20054;-63
2021/04/24 00:08:39;;;;;;;20.98;13.65;;;3.50;95.70;;;;;;5099595;27;20053;-63
2021/04/24 00:11:05;;;;;;;23.00;12.60;;;3.40;95.90;;;;;;5098070;28;20104;-62
2021/04/24 00:13:31;;;;;;;22.88;12.05;;;3.40;95.60;;;;;;5091095;27;20035;-63
2021/04/24 00:15:57;;;;;;;17.98;11.70;;;3.40;95.60;;;;;;5104131;27;20058;-62
2021/04/24 00:18:23;;;;;;;19.42;13.35;;;3.30;95.50;;;;;;5096002;27;20040;-62
2021/04/24 00:20:49;;;;;;;23.42;13.32;;;3.40;95.80;;;;;;5107698;27;20502;-62
2021/04/24 00:23:16;;;;;;;17.17;11.93;;;3.30;96.00;;;;;;5091914;28;20048;-62
2021/04/24 00:25:42;;;;;;;21.20;12.20;;;3.30;95.90;;;;;;5099930;28;20067;-62
2021/04/24 00:28:10;;;;;;;23.10;11.88;;;3.30;95.60;;;;;;5093595;27;20089;-63
2021/04/24 00:30:37;;;;;;;21.42;12.52;;;3.20;95.50;;;;;;5105029;27;20463;-62
2021/04/24 00:33:04;;;;;;;24.50;13.63;;;3.20;95.60;;;;;;5101539;27;20070;-62
2021/04/24 00:35:30;;;;;;;21.55;13.15;;;3.20;95.50;;;;;;5102359;27;20042;-62
2021/04/24 00:37:56;;;;;;;21.75;13.50;;;3.20;95.10;;;;;;5103570;27;20045;-62
2021/04/24 00:40:22;;;;;;;21.42;12.55;;;3.10;95.60;;;;;;5099590;27;20061;-62
2021/04/24 00:42:49;;;;;;;23.10;12.98;;;3.10;95.70;;;;;;5099216;28;20554;-62
2021/04/24 00:45:18;;;;;;;19.77;12.10;;;3.10;95.40;;;;;;5101320;27;20396;-62
2021/04/24 00:47:44;;;;;;;22.88;13.10;;;3.10;95.10;;;;;;5101375;27;20082;-62
2021/04/24 00:50:15;;;;;;;21.73;12.60;;;3.00;95.50;;;;;;5094780;28;20503;-62
2021/04/24 00:52:41;;;;;;;20.38;13.27;;;3.00;95.70;;;;;;5102020;27;20038;-62
2021/04/24 00:55:07;;;;;;;21.98;12.38;;;3.00;95.90;;;;;;5096014;28;20028;-62
2021/04/24 00:57:34;;;;;;;21.85;12.10;;;2.90;96.00;;;;;;5099228;28;20032;-62
2021/04/24 01:00:00;;;;;;;19.17;12.25;;;2.90;95.90;;;;;;5096088;28;20082;-62
2021/04/24 01:02:26;;;;;;;21.20;12.02;;;2.90;95.90;;;;;;5099917;28;20040;-62
2021/04/24 01:04:53;;;;;;;23.70;12.88;;;2.80;96.20;;;;;;5100111;28;20040;-62
2021/04/24 01:07:18;;;;;;;21.10;12.07;;;2.80;96.30;;;;;;5102897;28;20100;-62
2021/04/24 01:09:44;;;;;;;19.60;11.77;;;2.80;96.50;;;;;;5095208;27;20471;-61
2021/04/24 01:12:11;;;;;;;22.48;12.43;;;2.70;96.20;;;;;;5102558;28;20039;-61
2021/04/24 01:14:36;;;;;;;17.13;11.52;;;2.70;96.10;;;;;;5104233;28;20035;-62
2021/04/24 01:17:05;;;;;;;22.67;12.15;;;2.70;96.00;;;;;;5093620;27;20047;-61
2021/04/24 01:19:31;;;;;;;23.42;11.60;;;2.70;95.80;;;;;;5096534;28;20427;-61
2021/04/24 01:22:10;;;;;;;22.30;11.52;;;2.70;95.70;;;;;;5090807;28;20039;-61
2021/04/24 01:24:36;;;;;;;19.60;12.65;;;2.70;96.10;;;;;;5100507;28;20036;-62
2021/04/24 01:27:05;;;;;;;21.80;11.60;;;2.60;96.30;;;;;;5092352;28;20470;-61
2021/04/24 01:29:31;;;;;;;18.55;11.93;;;2.70;96.10;;;;;;5101368;28;20518;-62
2021/04/24 01:32:00;;;;;;;18.13;11.93;;;2.60;96.30;;;;;;5097555;28;20379;-61
2021/04/24 01:34:27;;;;;;;21.83;11.95;;;2.60;96.30;;;;;;5103429;28;20402;-61
2021/04/24 01:36:56;;;;;;;17.67;11.93;;;2.60;96.60;;;;;;5093508;28;20042;-61
2021/04/24 01:39:23;;;;;;;19.08;11.88;;;2.60;96.00;;;;;;5098487;28;20035;-61
2021/04/24 01:41:50;;;;;;;20.52;12.07;;;2.60;96.20;;;;;;5089275;28;20135;-61
2021/04/24 01:44:16;;;;;;;19.58;12.05;;;2.70;96.30;;;;;;5103723;28;20126;-61
2021/04/24 01:46:41;;;;;;;19.30;11.80;;;2.60;96.50;;;;;;5098632;27;20058;-61
2021/04/24 01:49:08;;;;;;;21.77;12.40;;;2.60;96.60;;;;;;5105399;27;20028;-61
2021/04/24 01:51:34;;;;;;;18.67;11.35;;;2.70;96.60;;;;;;5102659;27;20040;-61
2021/04/24 01:54:00;;;;;;;20.13;12.63;;;2.60;96.70;;;;;;5099398;28;20039;-61
2021/04/24 01:56:25;;;;;;;22.55;12.55;;;2.60;96.70;;;;;;5099110;27;20044;-61
2021/04/24 01:58:52;;;;;;;20.98;12.27;;;2.60;96.80;;;;;;5106089;27;20051;-61
2021/04/24 02:01:18;;;;;;;19.55;11.30;;;2.60;96.60;;;;;;5107453;28;20048;-61
2021/04/24 02:03:48;;;;;;;19.60;10.95;;;2.60;96.80;;;;;;5101029;27;20090;-61
2021/04/24 02:06:14;;;;;;;23.70;11.95;;;2.60;96.60;;;;;;5106995;27;20119;-61
2021/04/24 02:08:42;;;;;;;19.42;11.10;;;2.60;96.70;;;;;;5105805;27;20082;-61
2021/04/24 02:11:09;;;;;;;19.88;10.40;;;2.50;97.00;;;;;;5101013;27;20059;-61
2021/04/24 02:13:39;;;;;;;20.02;11.63;;;2.50;97.00;;;;;;5098392;27;20470;-61
2021/04/24 02:16:09;;;;;;;23.65;11.75;;;2.50;96.70;;;;;;5102167;27;20048;-61
2021/04/24 02:18:35;;;;;;;20.52;11.57;;;2.50;96.70;;;;;;5094721;28;20036;-61
2021/04/24 02:21:01;;;;;;;20.58;11.52;;;2.50;96.80;;;;;;5100465;28;20142;-61
2021/04/24 02:23:33;;;;;;;20.52;10.63;;;2.50;96.80;;;;;;5098846;27;20482;-61
2021/04/24 02:25:58;;;;;;;20.75;11.68;;;2.50;96.80;;;;;;5102732;28;20115;-61
2021/04/24 02:28:24;;;;;;;20.65;11.45;;;2.50;96.90;;;;;;5095833;27;20044;-61
2021/04/24 02:30:50;;;;;;;18.60;11.48;;;2.50;96.90;;;;;;5106880;27;20440;-61
2021/04/24 02:33:16;;;;;;;19.15;10.20;;;2.50;97.10;;;;;;5095869;28;20061;-61
2021/04/24 02:35:57;;;;;;;21.48;11.38;;;2.40;96.80;;;;;;5107686;28;20093;-61
2021/04/24 02:38:33;;;;;;;23.10;11.65;;;2.40;96.60;;;;;;5092933;28;20138;-61
2021/04/24 02:41:02;;;;;;;20.20;11.63;;;2.40;96.80;;;;;;5101567;28;20469;-61
2021/04/24 02:43:29;;;;;;;22.17;12.18;;;2.40;96.70;;;;;;5098494;27;20043;-61
2021/04/24 02:45:55;;;;;;;18.90;10.77;;;2.30;96.90;;;;;;5101384;28;20070;-61
2021/04/24 02:48:21;;;;;;;22.23;11.68;;;2.40;96.80;;;;;;5093003;28;20048;-61
2021/04/24 02:50:48;;;;;;;19.33;11.65;;;2.30;96.80;;;;;;5102386;28;20320;-61
2021/04/24 02:53:14;;;;;;;20.15;11.68;;;2.30;97.10;;;;;;5100328;28;20063;-61
2021/04/24 02:55:40;;;;;;;20.02;12.25;;;2.30;97.20;;;;;;5094274;28;20086;-61
2021/04/24 02:58:06;;;;;;;22.67;12.27;;;2.30;97.40;;;;;;5101610;28;20032;-61
2021/04/24 03:00:32;;;;;;;22.10;12.18;;;2.30;96.90;;;;;;5096205;28;20401;-61
2021/04/24 03:03:08;;;;;;;19.05;11.85;;;2.30;96.90;;;;;;5101997;28;20096;-61
2021/04/24 03:05:34;;;;;;;19.13;11.68;;;2.30;96.80;;;;;;5094310;28;20052;-61
2021/04/24 03:08:02;;;;;;;17.58;11.73;;;2.20;96.90;;;;;;5103122;27;20036;-61
2021/04/24 03:10:28;;;;;;;19.58;10.82;;;2.20;96.70;;;;;;5089781;28;20040;-61
2021/04/24 03:12:54;;;;;;;21.33;11.93;;;2.20;96.80;;;;;;5102644;28;20303;-61
2021/04/24 03:15:20;;;;;;;21.25;11.43;;;2.10;96.90;;;;;;5093566;28;20530;-61
2021/04/24 03:17:46;;;;;;;22.80;10.60;;;2.10;97.00;;;;;;5102918;28;20096;-61
2021/04/24 03:20:13;;;;;;;21.75;12.25;;;2.00;96.60;;;;;;5089351;28;20044;-61
2021/04/24 03:22:39;;;;;;;20.17;10.82;;;2.00;96.60;;;;;;5101709;28;20039;-61
2021/04/24 03:25:07;;;;;;;24.60;12.13;;;2.00;96.50;;;;;;5096861;28;20482;-61
2021/04/24 03:27:33;;;;;;;21.33;11.65;;;2.00;97.00;;;;;;5101441;28;20117;-61
2021/04/24 03:29:59;;;;;;;17.52;10.48;;;1.90;97.20;;;;;;5096191;28;20074;-61
2021/04/24 03:32:26;;;;;;;14.45;9.70;;;1.90;97.10;;;;;;5100334;28;20044;-61
2021/04/24 03:34:52;;;;;;;14.95;9.75;;;1.90;96.70;;;;;;5103677;28;20546;-61
2021/04/24 03:37:18;;;;;;;22.30;10.70;;;1.90;96.50;;;;;;5098048;28;20126;-61
2021/04/24 03:39:44;;;;;;;14.43;8.60;;;1.90;96.80;;;;;;5100810;28;20121;-61
2021/04/24 03:42:11;;;;;;;21.02;9.43;;;1.80;97.00;;;;;;5093550;28;20490;-61
2021/04/24 03:44:38;;;;;;;21.00;11.25;;;1.80;96.70;;;;;;5100259;28;21113;-61
2021/04/24 03:47:03;;;;;;;23.02;10.95;;;1.80;97.00;;;;;;5095336;28;20051;-61
2021/04/24 03:49:29;;;;;;;20.17;10.50;;;1.80;97.00;;;;;;5097152;28;20048;-61
2021/04/24 03:51:55;;;;;;;17.75;10.82;;;1.80;97.20;;;;;;5094438;28;20135;-61
2021/04/24 03:54:21;;;;;;;17.48;9.80;;;1.80;97.00;;;;;;5098213;28;20066;-61
2021/04/24 03:56:46;;;;;;;17.83;11.13;;;1.80;97.10;;;;;;5094656;28;20097;-61
2021/04/24 03:59:12;;;;;;;20.17;11.75;;;1.70;97.10;;;;;;5100760;28;20162;-61
2021/04/24 04:01:38;;;;;;;16.98;10.07;;;1.70;97.40;;;;;;5095613;28;20052;-61
2021/04/24 04:04:04;;;;;;;18.52;10.20;;;1.70;97.20;;;;;;5099242;28;20043;-61
2021/04/24 04:06:30;;;;;;;17.75;11.35;;;1.70;96.80;;;;;;5093164;28;20047;-61
2021/04/24 04:08:56;;;;;;;18.60;10.63;;;1.70;96.90;;;;;;5100073;28;20526;-61
2021/04/24 04:11:21;;;;;;;20.88;10.93;;;1.70;97.60;;;;;;5100652;28;20111;-61
2021/04/24 04:13:47;;;;;;;18.80;9.80;;;1.70;97.50;;;;;;5093605;28;20067;-61
2021/04/24 04:16:13;;;;;;;15.18;10.35;;;1.70;97.40;;;;;;5104018;28;20122;-61
2021/04/24 04:18:39;;;;;;;16.80;10.15;;;1.70;97.50;;;;;;5091532;28;20042;-61
2021/04/24 04:21:06;;;;;;;18.42;10.05;;;1.70;97.20;;;;;;5101883;28;20126;-61
2021/04/24 04:23:33;;;;;;;17.95;10.80;;;1.60;97.60;;;;;;5092761;28;20388;-61
2021/04/24 04:25:59;;;;;;;16.95;10.32;;;1.70;97.70;;;;;;5097900;28;20044;-61
2021/04/24 04:28:25;;;;;;;18.58;11.65;;;1.70;97.60;;;;;;5095447;28;20040;-61
2021/04/24 04:30:53;;;;;;;18.05;10.73;;;1.70;97.40;;;;;;5098965;28;20050;-61
2021/04/24 04:33:19;;;;;;;20.20;10.75;;;1.70;97.60;;;;;;5095007;28;20040;-62
2021/04/24 04:35:45;;;;;;;21.85;11.57;;;1.70;97.60;;;;;;5100254;28;20138;-62
2021/04/24 04:38:11;;;;;;;19.13;10.93;;;1.70;97.40;;;;;;5090856;28;20491;-61
2021/04/24 04:40:37;;;;;;;14.95;10.20;;;1.70;97.50;;;;;;5098943;28;20189;-61
2021/04/24 04:43:04;;;;;;;20.58;11.40;;;1.70;97.40;;;;;;5091036;28;21022;-61
2021/04/24 04:45:31;;;;;;;18.40;10.82;;;1.70;97.20;;;;;;5102551;28;20052;-61
2021/04/24 04:47:57;;;;;;;20.90;11.07;;;1.70;97.20;;;;;;5093337;28;20139;-62
2021/04/24 04:50:26;;;;;;;19.25;10.88;;;1.80;97.40;;;;;;5100583;28;20550;-62
2021/04/24 04:52:53;;;;;;;20.02;10.73;;;1.80;97.50;;;;;;5101585;28;20040;-61
2021/04/24 04:55:19;;;;;;;19.63;10.65;;;1.80;97.50;;;;;;5095603;28;20067;-62
2021/04/24 04:57:46;;;;;;;19.50;10.68;;;1.90;97.60;;;;;;5099585;28;20475;-62
2021/04/24 05:00:17;;;;;;;19.08;10.02;;;1.90;97.80;;;;;;5096532;28;20047;-62
2021/04/24 05:02:44;;;;;;;19.75;10.02;;;1.90;97.60;;;;;;5101213;28;20039;-61
2021/04/24 05:05:11;;;;;;;20.33;11.88;;;1.90;97.40;;;;;;5091860;28;20482;-61
2021/04/24 05:07:37;;;;;;;17.77;10.15;;;1.90;97.70;;;;;;5099353;28;20043;-62
2021/04/24 05:10:04;;;;;;;18.13;10.07;;;2.00;97.60;;;;;;5091911;28;20039;-62
2021/04/24 05:12:30;;;;;;;17.17;9.60;;;2.10;97.90;;;;;;5102325;28;20028;-62
2021/04/24 05:14:56;;;;;;;18.83;10.80;;;2.10;98.00;;;;;;5098025;28;20048;-61
2021/04/24 05:17:22;;;;;;;32.72;10.40;;;2.10;98.20;;;;;;5098800;28;20052;-61
2021/04/24 05:19:48;;;;;;;66.75;11.07;;;2.20;97.70;;;;;;5100016;28;20100;-61
2021/04/24 05:22:14;;;;;;;29.15;10.20;;;2.30;97.70;;;;;;5100839;28;20059;-61
2021/04/24 05:24:40;;;;;;;19.75;10.27;;;2.30;98.00;;;;;;5096361;28;20465;-62
2021/04/24 05:27:06;;;;;;;21.35;10.27;;;2.50;98.10;;;;;;5107596;28;20043;-61
2021/04/24 05:29:32;;;;;;;25.08;11.65;;;2.60;98.50;;;;;;5101843;28;20039;-61
2021/04/24 05:31:58;;;;;;;31.17;10.57;;;2.70;98.40;;;;;;5110684;28;20086;-61
2021/04/24 05:34:23;;;;;;;26.50;11.55;;;2.80;98.50;;;;;;5106407;28;20063;-61
2021/04/24 05:36:49;;;;;;;17.23;10.45;;;3.00;98.60;;;;;;5098598;28;20488;-61
2021/04/24 05:39:15;;;;;;;18.98;11.00;;;3.10;98.50;;;;;;5107203;28;20063;-61
2021/04/24 05:41:41;;;;;;;17.23;11.20;;;3.30;98.40;;;;;;5100811;28;20048;-61
2021/04/24 05:44:07;;;;;;;17.92;11.20;;;3.50;98.30;;;;;;5109475;28;20400;-61
2021/04/24 05:46:33;;;;;;;17.95;10.20;;;3.70;98.30;;;;;;5103972;28;20043;-61
2021/04/24 05:48:59;;;;;;;17.60;11.25;;;4.00;98.00;;;;;;5107343;28;20062;-61
2021/04/24 05:51:25;;;;;;;18.10;11.73;;;4.10;97.60;;;;;;5103655;28;20039;-61
2021/04/24 05:53:53;;;;;;;21.67;12.63;;;4.20;97.50;;;;;;5108124;28;20075;-61
2021/04/24 05:56:20;;;;;;;17.73;11.10;;;4.30;97.40;;;;;;5095125;28;20047;-61
2021/04/24 05:58:48;;;;;;;18.35;11.98;;;4.40;97.40;;;;;;5100240;28;20059;-61
2021/04/24 06:01:14;;;;;;;18.98;11.52;;;4.50;97.20;;;;;;5099296;28;20085;-62
2021/04/24 06:03:39;;;;;;;18.73;12.05;;;4.50;97.10;;;;;;5108213;28;20455;-61
2021/04/24 06:06:05;;;;;;;17.52;11.15;;;4.60;97.10;;;;;;5099719;28;20066;-61
2021/04/24 06:08:31;;;;;;;78.82;57.00;;;4.60;97.10;;;;;;5108906;28;20036;-61
2021/04/24 06:10:57;;;;;;;15.77;10.93;;;4.70;96.80;;;;;;5102226;28;20032;-61
2021/04/24 06:13:23;;;;;;;17.63;11.43;;;4.70;96.80;;;;;;5097903;28;20118;-61
2021/04/24 06:15:49;;;;;;;18.25;10.70;;;4.80;96.80;;;;;;5104386;28;20050;-61
2021/04/24 06:18:16;;;;;;;13.30;10.27;;;5.00;97.00;;;;;;5101805;28;20038;-62
2021/04/24 06:20:42;;;;;;;19.65;11.70;;;5.20;96.80;;;;;;5107984;28;20085;-62
2021/04/24 06:23:08;;;;;;;19.30;11.52;;;5.40;96.70;;;;;;5099444;28;20123;-62
2021/04/24 06:25:34;;;;;;;15.75;11.40;;;5.60;96.50;;;;;;5106776;28;20126;-62
2021/04/24 06:28:00;;;;;;;14.65;11.05;;;5.80;95.90;;;;;;5097406;28;20052;-61
2021/04/24 06:30:26;;;;;;;17.80;10.85;;;5.90;96.00;;;;;;5107224;28;20193;-61
2021/04/24 06:32:54;;;;;;;15.52;10.57;;;6.10;96.00;;;;;;5099060;28;20065;-62
2021/04/24 06:35:21;;;;;;;16.95;10.82;;;6.30;95.70;;;;;;5107900;27;20044;-61
2021/04/24 06:37:48;;;;;;;19.38;10.02;;;6.40;95.40;;;;;;5098936;28;20058;-61
2021/04/24 06:40:15;;;;;;;17.75;10.57;;;6.60;95.40;;;;;;5105559;28;20509;-61
2021/04/24 06:42:42;;;;;;;19.17;10.65;;;6.90;95.50;;;;;;5097471;28;20097;-61
2021/04/24 06:45:10;;;;;;;41.63;35.63;;;7.00;94.80;;;;;;5111113;28;20044;-61
2021/04/24 06:47:36;;;;;;;18.73;12.23;;;7.10;93.80;;;;;;5099523;28;20504;-61
2021/04/24 06:50:04;;;;;;;19.40;9.70;;;7.30;93.90;;;;;;5106191;28;20039;-62
2021/04/24 06:52:30;;;;;;;17.45;9.77;;;7.40;93.50;;;;;;5107771;28;20035;-62
2021/04/24 06:54:56;;;;;;;15.90;9.55;;;7.40;93.30;;;;;;5095686;28;20048;-61
2021/04/24 06:57:22;;;;;;;16.75;10.48;;;7.60;92.90;;;;;;5103331;28;20124;-61
2021/04/24 06:59:48;;;;;;;16.67;10.27;;;7.70;93.00;;;;;;5096931;28;20378;-62
2021/04/24 07:02:14;;;;;;;13.95;8.15;;;7.90;93.20;;;;;;5105028;28;20127;-62
2021/04/24 07:04:40;;;;;;;13.43;6.45;;;8.10;92.20;;;;;;5097067;28;20209;-62
2021/04/24 07:07:07;;;;;;;13.23;6.40;;;8.20;91.10;;;;;;5101244;28;20043;-62
2021/04/24 07:09:33;;;;;;;16.35;6.38;;;8.40;90.70;;;;;;5092161;28;20101;-62
2021/04/24 07:11:59;;;;;;;10.88;5.53;;;8.60;90.70;;;;;;5101561;28;20047;-62
2021/04/24 07:14:25;;;;;;;11.48;5.43;;;8.70;90.30;;;;;;5093327;28;20468;-62
2021/04/24 07:16:50;;;;;;;10.10;5.50;;;8.80;84.00;;;;;;5100959;28;20386;-62
2021/04/24 07:19:17;;;;;;;9.90;6.00;;;8.90;85.40;;;;;;5094619;28;20477;-62
2021/04/24 07:21:44;;;;;;;8.77;5.18;;;9.00;85.50;;;;;;5101590;28;20035;-62
2021/04/24 07:24:10;;;;;;;14.48;5.43;;;9.10;83.00;;;;;;5091624;28;20161;-62
2021/04/24 07:26:37;;;;;;;22.70;12.77;;;9.20;83.20;;;;;;5102473;28;20071;-62
2021/04/24 07:29:03;;;;;;;11.23;5.68;;;9.20;83.20;;;;;;5097842;28;20123;-62
2021/04/24 07:31:28;;;;;;;11.45;4.80;;;9.30;80.60;;;;;;5096444;28;20176;-62
2021/04/24 07:33:54;;;;;;;12.52;5.40;;;9.30;80.70;;;;;;5098794;28;20375;-62
2021/04/24 07:36:20;;;;;;;12.93;7.25;;;9.10;79.70;;;;;;5098255;28;20043;-62
2021/04/24 07:38:46;;;;;;;14.93;9.07;;;9.00;81.20;;;;;;5098289;28;20055;-62
2021/04/24 07:41:12;;;;;;;11.65;5.45;;;9.10;80.50;;;;;;5095146;28;20044;-62
2021/04/24 07:43:38;;;;;;;11.60;4.28;;;9.20;80.10;;;;;;5096445;28;20501;-62
2021/04/24 07:46:05;;;;;;;11.65;4.68;;;9.50;77.60;;;;;;5091597;28;20075;-62
2021/04/24 07:48:32;;;;;;;31.55;18.85;;;9.40;77.40;;;;;;5103611;28;20051;-62
2021/04/24 07:50:58;;;;;;;14.45;8.18;;;9.50;77.60;;;;;;5095124;28;20042;-62
2021/04/24 07:53:24;;;;;;;13.55;4.47;;;9.90;76.10;;;;;;5099896;28;20064;-63
2021/04/24 07:55:49;;;;;;;8.93;4.82;;;10.20;74.10;;;;;;5091661;28;20082;-62
2021/04/24 07:58:16;;;;;;;13.48;5.32;;;10.10;74.80;;;;;;5102289;28;21083;-63
2021/04/24 08:00:42;;;;;;;9.77;4.95;;;10.30;75.20;;;;;;5094350;28;20044;-63
2021/04/24 08:03:08;;;;;;;12.60;4.95;;;10.50;72.30;;;;;;5103283;28;20049;-62
2021/04/24 08:05:34;;;;;;;9.65;4.20;;;10.40;74.20;;;;;;5094007;28;20344;-62
2021/04/24 08:08:00;;;;;;;10.38;5.18;;;10.20;73.30;;;;;;5101397;28;20439;-63
2021/04/24 08:10:27;;;;;;;13.25;4.75;;;10.10;72.30;;;;;;5097589;28;20078;-62
2021/04/24 08:12:53;;;;;;;9.32;5.00;;;10.00;74.60;;;;;;5093718;28;20074;-62
2021/04/24 08:15:19;;;;;;;10.23;4.75;;;10.20;75.30;;;;;;5097564;28;20048;-63
2021/04/24 08:17:45;;;;;;;8.88;4.88;;;10.40;73.30;;;;;;5095198;28;20135;-62
2021/04/24 08:20:12;;;;;;;11.02;4.90;;;10.50;73.90;;;;;;5103575;28;20127;-62
2021/04/24 08:22:38;;;;;;;8.57;5.30;;;10.80;73.10;;;;;;5095158;28;20075;-62
2021/04/24 08:25:05;;;;;;;8.52;4.82;;;11.30;71.80;;;;;;5100961;28;20119;-63
2021/04/24 08:27:31;;;;;;;8.88;4.35;;;11.90;70.70;;;;;;5094246;28;20051;-62
2021/04/24 08:29:57;;;;;;;7.00;4.05;;;12.10;66.20;;;;;;5101543;28;20028;-62
2021/04/24 08:32:22;;;;;;;8.55;4.07;;;11.60;64.50;;;;;;5093026;28;20040;-62
2021/04/24 08:34:48;;;;;;;10.02;4.22;;;11.50;66.00;;;;;;5098666;28;20474;-62
2021/04/24 08:37:14;;;;;;;9.90;4.18;;;12.10;65.70;;;;;;5093039;28;20071;-62
2021/04/24 08:39:40;;;;;;;6.50;4.03;;;12.70;62.90;;;;;;5094122;28;20096;-62
2021/04/24 08:42:07;;;;;;;10.25;4.32;;;13.30;61.70;;;;;;5091536;28;20401;-62
2021/04/24 08:44:33;;;;;;;10.88;4.82;;;13.50;61.10;;;;;;5101190;28;20488;-62
2021/04/24 08:46:59;;;;;;;11.40;4.70;;;12.80;58.70;;;;;;5097148;28;20040;-62
2021/04/24 08:49:26;;;;;;;9.65;4.70;;;12.40;61.30;;;;;;5093497;28;20052;-62
2021/04/24 08:51:54;;;;;;;8.55;3.50;;;12.40;60.90;;;;;;5097989;28;20092;-62
2021/04/24 08:54:21;;;;;;;8.18;3.22;;;12.50;59.90;;;;;;5092931;28;20070;-62
2021/04/24 08:56:49;;;;;;;8.18;3.63;;;13.00;61.40;;;;;;5098862;28;20044;-62
2021/04/24 08:59:15;;;;;;;8.35;3.90;;;13.50;60.70;;;;;;5091951;28;20071;-62
2021/04/24 09:01:42;;;;;;;8.35;3.88;;;13.70;58.50;;;;;;5101309;28;20519;-62
2021/04/24 09:04:08;;;;;;;9.48;4.15;;;13.80;56.60;;;;;;5095717;28;20044;-62
2021/04/24 09:06:35;;;;;;;8.57;3.45;;;14.00;56.80;;;;;;5096378;28;20054;-62
2021/04/24 09:09:07;;;;;;;7.45;3.25;;;14.10;55.70;;;;;;5091461;28;20043;-62
2021/04/24 09:11:44;;;;;;;8.73;3.40;;;14.50;54.80;;;;;;5096973;28;20040;-62
2021/04/24 09:14:12;;;;;;;6.90;2.97;;;14.50;50.70;;;;;;5094137;28;20044;-62
2021/04/24 09:16:39;;;;;;;7.18;3.38;;;14.70;50.80;;;;;;5097207;28;20061;-62
2021/04/24 09:19:43;;;;;;;5.93;3.60;;;14.70;53.10;;;;;;5092265;28;20052;-62
2021/04/24 09:22:16;;;;;;;10.43;3.50;;;14.40;52.90;;;;;;5083930;28;20054;-63
2021/04/24 09:24:43;;;;;;;11.15;4.07;;;14.60;52.90;;;;;;5078928;28;20415;-63
2021/04/24 09:27:09;;;;;;;10.45;4.07;;;14.20;53.70;;;;;;5087840;28;20048;-63
2021/04/24 09:29:36;;;;;;;7.70;3.58;;;13.90;53.10;;;;;;5093136;28;20120;-62
2021/04/24 09:32:21;;;;;;;9.18;3.30;;;13.90;54.70;;;;;;5096659;28;20047;-62
2021/04/24 09:34:52;;;;;;;8.05;3.50;;;14.20;51.90;;;;;;5089219;28;20043;-63
2021/04/24 09:37:23;;;;;;;8.80;3.47;;;14.20;52.10;;;;;;5099733;28;20031;-62
2021/04/24 09:39:51;;;;;;;7.40;3.47;;;14.40;52.10;;;;;;5091961;28;20275;-62
2021/04/24 09:42:37;;;;;;;8.48;3.25;;;14.00;50.80;;;;;;5093437;28;20035;-62
2021/04/24 09:45:08;;;;;;;9.18;2.92;;;13.80;51.50;;;;;;5093118;28;20047;-62
2021/04/24 09:47:42;;;;;;;7.65;3.33;;;14.10;52.80;;;;;;5098162;28;20043;-62
2021/04/24 09:50:20;;;;;;;8.63;3.13;;;14.50;51.50;;;;;;5090967;28;20052;-63
2021/04/24 09:52:47;;;;;;;9.23;2.97;;;14.60;49.40;;;;;;5098667;28;20058;-62
2021/04/24 09:55:16;;;;;;;10.13;2.80;;;14.90;50.40;;;;;;5089775;28;20535;-67
2021/04/24 09:57:42;;;;;;;8.77;2.78;;;14.90;45.60;;;;;;5101592;28;20483;-63
2021/04/24 10:00:13;;;;;;;12.50;3.45;;;15.00;45.90;;;;;;5095569;28;20035;-65
2021/04/24 10:02:41;;;;;;;8.15;3.08;;;14.60;45.10;;;;;;5101871;28;20086;-65
2021/04/24 10:05:11;;;;;;;8.65;2.80;;;14.10;44.90;;;;;;5097374;27;20360;-65
2021/04/24 10:07:39;;;;;;;8.48;3.20;;;14.30;45.90;;;;;;5105815;28;20040;-64
2021/04/24 10:10:08;;;;;;;14.18;2.97;;;14.50;46.40;;;;;;5103899;28;20074;-64
2021/04/24 10:12:34;;;;;;;8.15;3.00;;;14.70;46.40;;;;;;5100629;27;20490;-64
2021/04/24 10:15:00;;;;;;;7.68;2.75;;;15.00;46.90;;;;;;5103059;27;20047;-64
2021/04/24 10:17:27;;;;;;;8.93;2.17;;;15.40;47.90;;;;;;5099132;28;20031;-64
2021/04/24 10:19:53;;;;;;;7.82;2.95;;;15.20;46.00;;;;;;5102002;28;20046;-64
2021/04/24 10:22:22;;;;;;;8.70;3.10;;;15.20;46.90;;;;;;5096120;28;20036;-64
2021/04/24 10:24:49;;;;;;;6.25;2.17;;;15.10;46.40;;;;;;5098609;28;20124;-64
2021/04/24 10:27:17;;;;;;;6.95;3.20;;;15.00;46.70;;;;;;5098375;28;20119;-64
2021/04/24 10:29:45;;;;;;;6.53;2.53;;;14.80;45.00;;;;;;5103246;28;20050;-65
2021/04/24 10:32:11;;;;;;;12.43;2.92;;;14.70;45.30;;;;;;5093424;28;20048;-64
2021/04/24 10:34:38;;;;;;;9.73;2.20;;;14.70;46.60;;;;;;5103186;28;20071;-64
2021/04/24 10:37:04;;;;;;;5.10;1.98;;;14.60;44.20;;;;;;5094722;27;20044;-64
2021/04/24 10:39:32;;;;;;;6.28;1.92;;;14.50;41.60;;;;;;5100523;28;20511;-64
2021/04/24 10:42:11;;;;;;;6.30;1.63;;;14.30;40.40;;;;;;5100958;28;20066;-64
2021/04/24 10:44:48;;;;;;;8.63;2.78;;;14.10;41.40;;;;;;5103757;28;20434;-63
2021/04/24 10:47:14;;;;;;;11.90;3.17;;;14.00;43.00;;;;;;5094987;28;20036;-64
2021/04/24 10:49:58;;;;;;;10.95;2.40;;;13.70;43.20;;;;;;5100961;28;20100;-65
2021/04/24 10:52:24;;;;;;;8.00;2.65;;;14.10;43.70;;;;;;5098108;28;20047;-64
2021/04/24 10:55:15;;;;;;;7.57;2.15;;;14.30;43.50;;;;;;5101028;27;20044;-63
2021/04/24 10:57:41;;;;;;;8.38;1.98;;;14.50;41.40;;;;;;5097525;28;20114;-62
2021/04/24 11:00:18;;;;;;;4.85;1.73;;;14.60;41.90;;;;;;5109431;28;20051;-62
2021/04/24 11:02:49;;;;;;;9.13;2.22;;;14.70;40.90;;;;;;5102877;28;20040;-63
2021/04/24 11:05:22;;;;;;;5.68;1.95;;;14.60;40.60;;;;;;5107289;28;20046;-64
2021/04/24 11:07:49;;;;;;;4.60;1.55;;;14.20;41.20;;;;;;5099415;28;20061;-64
2021/04/24 11:10:14;;;;;;;4.45;1.38;;;14.30;42.50;;;;;;5108822;28;20366;-64
2021/04/24 11:12:48;;;;;;;3.72;1.98;;;14.00;39.30;;;;;;5106812;28;20042;-63
2021/04/24 11:15:16;;;;;;;5.53;1.50;;;13.80;37.90;;;;;;5098321;28;20039;-63
2021/04/24 11:17:44;;;;;;;7.75;1.10;;;13.80;36.90;;;;;;5105574;28;21667;-63
2021/04/24 11:20:11;;;;;;;7.15;1.75;;;13.80;38.60;;;;;;5100258;28;20113;-64
2021/04/24 11:22:42;;;;;;;5.30;1.20;;;13.80;38.60;;;;;;5104215;28;20039;-63
2021/04/24 11:25:25;;;;;;;3.97;1.17;;;13.70;38.60;;;;;;5099727;28;20124;-63
2021/04/24 11:28:05;;;;;;;4.65;1.02;;;13.80;37.90;;;;;;5106778;28;20040;-64
2021/04/24 11:30:58;;;;;;;3.45;1.00;;;14.00;37.50;;;;;;5096990;28;20032;-64
2021/04/24 11:33:48;;;;;;;4.03;0.90;;;14.30;37.60;;;;;;5101132;28;20032;-64
2021/04/24 11:36:25;;;;;;;4.45;1.15;;;14.50;36.20;;;;;;5105379;28;20039;-63
2021/04/24 11:38:57;;;;;;;4.10;1.15;;;14.70;36.70;;;;;;5101238;28;20055;-62
2021/04/24 11:41:33;;;;;;;5.35;1.35;;;14.70;36.50;;;;;;5100130;28;20040;-65
2021/04/24 11:44:24;;;;;;;4.28;1.73;;;14.30;35.90;;;;;;5096224;28;20463;-64
2021/04/24 11:46:52;;;;;;;5.47;1.80;;;14.10;38.10;;;;;;5097292;28;20085;-64
2021/04/24 11:49:20;;;;;;;4.82;1.52;;;14.20;39.40;;;;;;5093018;28;20052;-64
2021/04/24 11:52:12;;;;;;;4.05;1.67;;;14.60;39.30;;;;;;5098931;28;20100;-64
2021/04/24 11:54:42;;;;;;;5.60;1.73;;;15.10;37.60;;;;;;5088986;28;20425;-64
2021/04/24 11:57:09;;;;;;;8.15;1.58;;;15.20;38.70;;;;;;5099939;28;20109;-64
2021/04/24 11:59:38;;;;;;;5.97;2.30;;;14.90;38.80;;;;;;5091608;28;20051;-64
2021/04/24 12:02:27;;;;;;;6.35;1.50;;;14.80;40.00;;;;;;5100014;28;20036;-65
2021/04/24 12:05:09;;;;;;;7.18;2.58;;;14.80;37.80;;;;;;5092780;28;20047;-62
2021/04/24 12:07:47;;;;;;;6.60;1.92;;;14.70;39.40;;;;;;5099443;28;20044;-62
2021/04/24 12:10:14;;;;;;;4.18;1.77;;;14.90;40.00;;;;;;5090461;28;20075;-63
2021/04/24 12:12:48;;;;;;;7.40;1.73;;;14.70;40.00;;;;;;5098347;28;20046;-64
2021/04/24 12:15:19;;;;;;;7.07;2.10;;;14.80;39.40;;;;;;5094796;28;20548;-65
2021/04/24 12:17:58;;;;;;;7.28;2.05;;;14.90;39.80;;;;;;5100937;28;20044;-64
2021/04/24 12:20:38;;;;;;;7.60;2.08;;;15.00;39.70;;;;;;5094643;28;20082;-64
2021/04/24 12:23:09;;;;;;;7.88;2.38;;;15.00;39.60;;;;;;5099320;28;20036;-65
2021/04/24 12:25:37;;;;;;;7.45;1.70;;;14.30;40.20;;;;;;5099480;28;20118;-64
2021/04/24 12:28:05;;;;;;;7.85;1.85;;;14.30;40.60;;;;;;5102814;28;20047;-62
2021/04/24 12:30:36;;;;;;;6.03;2.03;;;14.30;40.10;;;;;;5102174;28;20031;-63
2021/04/24 12:33:05;;;;;;;4.47;1.52;;;14.30;40.90;;;;;;5096776;27;20040;-65
2021/04/24 12:35:36;;;;;;;6.15;1.55;;;14.40;41.10;;;;;;5103190;28;20039;-64
2021/04/24 12:38:02;;;;;;;6.55;1.70;;;14.50;40.90;;;;;;5094132;28;20035;-63
2021/04/24 12:40:29;;;;;;;6.38;2.00;;;14.50;41.90;;;;;;5101083;28;20383;-63
2021/04/24 12:43:07;;;;;;;7.80;2.10;;;14.80;41.10;;;;;;5094403;28;20040;-64
2021/04/24 12:45:34;;;;;;;6.60;1.73;;;14.90;40.80;;;;;;5103517;28;20036;-64